sensor_id;sensor_type;location;lat;lon;timestamp;P1;durP1;ratioP1;P2;durP2;ratioP2
10769;SDS011;5437;50.852;4.438;2023-02-01T00:01:30;16.00;;;6.47;;
10769;SDS011;5437;50.852;4.438;2023-02-01T00:03:56;17.80;;;7.50;;
10769;SDS011;5437;50.852;4.438;2023-02-01T00:06:22;15.52;;;7.53;;
10769;SDS011;5437;50.852;4.438;2023-02-01T00:08:48;14.60;;;7.22;;
10769;SDS011;5437;50.852;4.438;2023-02-01T00:11:14;17.77;;;7.00;;
10769;SDS011;5437;50.852;4.438;2023-02-01T00:13:41;12.38;;;7.60;;
10769;SDS011;5437;50.852;4.438;2023-02-01T00:16:12;15.02;;;7.60;;
10769;SDS011;5437;50.852;4.438;2023-02-01T00:18:39;18.40;;;8.18;;
10769;SDS011;5437;50.852;4.438;2023-02-01T00:21:05;20.27;;;8.85;;
10769;SDS011;5437;50.852;4.438;2023-02-01T00:23:31;16.58;;;7.53;;
10769;SDS011;5437;50.852;4.438;2023-02-01T00:25:59;16.15;;;8.13;;
10769;SDS011;5437;50.852;4.438;2023-02-01T00:28:26;14.95;;;7.57;;
10769;SDS011;5437;50.852;4.438;2023-02-01T00:30:59;15.30;;;8.43;;
10769;SDS011;5437;50.852;4.438;2023-02-01T00:33:29;17.30;;;8.10;;
10769;SDS011;5437;50.852;4.438;2023-02-01T00:35:56;16.90;;;7.82;;
10769;SDS011;5437;50.852;4.438;2023-02-01T00:38:23;14.82;;;7.82;;
10769;SDS011;5437;50.852;4.438;2023-02-01T00:40:49;17.55;;;7.85;;
10769;SDS011;5437;50.852;4.438;2023-02-01T00:43:15;19.77;;;8.00;;
10769;SDS011;5437;50.852;4.438;2023-02-01T00:45:41;15.15;;;7.25;;
10769;SDS011;5437;50.852;4.438;2023-02-01T00:48:07;14.48;;;7.78;;
10769;SDS011;5437;50.852;4.438;2023-02-01T00:50:33;21.67;;;7.88;;
10769;SDS011;5437;50.852;4.438;2023-02-01T00:52:59;16.90;;;7.22;;
10769;SDS011;5437;50.852;4.438;2023-02-01T00:55:25;18.40;;;7.20;;
10769;SDS011;5437;50.852;4.438;2023-02-01T00:57:51;17.98;;;6.53;;
10769;SDS011;5437;50.852;4.438;2023-02-01T01:00:18;16.70;;;6.68;;
10769;SDS011;5437;50.852;4.438;2023-02-01T01:02:44;12.93;;;6.03;;
10769;SDS011;5437;50.852;4.438;2023-02-01T01:05:10;17.38;;;6.47;;
10769;SDS011;5437;50.852;4.438;2023-02-01T01:07:36;15.82;;;6.28;;
10769;SDS011;5437;50.852;4.438;2023-02-01T01:10:02;14.45;;;5.93;;
10769;SDS011;5437;50.852;4.438;2023-02-01T01:12:28;13.95;;;5.75;;
10769;SDS011;5437;50.852;4.438;2023-02-01T01:14:54;16.17;;;5.60;;
10769;SDS011;5437;50.852;4.438;2023-02-01T01:17:20;14.70;;;6.43;;
10769;SDS011;5437;50.852;4.438;2023-02-01T01:19:46;13.75;;;6.15;;
10769;SDS011;5437;50.852;4.438;2023-02-01T01:22:12;10.70;;;6.13;;
10769;SDS011;5437;50.852;4.438;2023-02-01T01:24:38;15.32;;;6.60;;
10769;SDS011;5437;50.852;4.438;2023-02-01T01:27:04;14.52;;;5.97;;
10769;SDS011;5437;50.852;4.438;2023-02-01T01:29:30;15.70;;;5.97;;
10769;SDS011;5437;50.852;4.438;2023-02-01T01:31:56;14.98;;;5.63;;
10769;SDS011;5437;50.852;4.438;2023-02-01T01:34:22;13.10;;;5.82;;
10769;SDS011;5437;50.852;4.438;2023-02-01T01:36:48;17.90;;;5.63;;
10769;SDS011;5437;50.852;4.438;2023-02-01T01:39:14;15.05;;;5.18;;
10769;SDS011;5437;50.852;4.438;2023-02-01T01:41:40;11.63;;;4.90;;
10769;SDS011;5437;50.852;4.438;2023-02-01T01:44:06;12.88;;;5.35;;
10769;SDS011;5437;50.852;4.438;2023-02-01T01:46:52;14.73;;;4.90;;
10769;SDS011;5437;50.852;4.438;2023-02-01T01:49:20;11.35;;;4.68;;
10769;SDS011;5437;50.852;4.438;2023-02-01T01:51:47;12.43;;;4.97;;
10769;SDS011;5437;50.852;4.438;2023-02-01T01:56:42;12.68;;;4.43;;
10769;SDS011;5437;50.852;4.438;2023-02-01T01:59:09;14.98;;;4.50;;
10769;SDS011;5437;50.852;4.438;2023-02-01T02:01:35;13.18;;;4.40;;
10769;SDS011;5437;50.852;4.438;2023-02-01T02:04:01;11.68;;;3.92;;
10769;SDS011;5437;50.852;4.438;2023-02-01T02:06:45;10.20;;;3.88;;
10769;SDS011;5437;50.852;4.438;2023-02-01T02:09:13;12.05;;;3.97;;
10769;SDS011;5437;50.852;4.438;2023-02-01T02:11:39;10.52;;;3.40;;
10769;SDS011;5437;50.852;4.438;2023-02-01T02:14:06;13.10;;;3.92;;
10769;SDS011;5437;50.852;4.438;2023-02-01T02:21:56;11.88;;;3.50;;
10769;SDS011;5437;50.852;4.438;2023-02-01T02:30:23;12.80;;;3.58;;
10769;SDS011;5437;50.852;4.438;2023-02-01T02:38:13;9.85;;;3.55;;
10769;SDS011;5437;50.852;4.438;2023-02-01T02:40:53;16.25;;;4.35;;
10769;SDS011;5437;50.852;4.438;2023-02-01T02:46:24;15.18;;;3.95;;
10769;SDS011;5437;50.852;4.438;2023-02-01T02:49:11;8.88;;;3.92;;
10769;SDS011;5437;50.852;4.438;2023-02-01T02:51:43;10.73;;;3.85;;
10769;SDS011;5437;50.852;4.438;2023-02-01T02:54:31;13.70;;;3.45;;
10769;SDS011;5437;50.852;4.438;2023-02-01T02:57:29;13.02;;;3.58;;
10769;SDS011;5437;50.852;4.438;2023-02-01T03:00:16;13.00;;;3.42;;
10769;SDS011;5437;50.852;4.438;2023-02-01T03:03:02;9.82;;;2.97;;
10769;SDS011;5437;50.852;4.438;2023-02-01T03:05:47;12.73;;;3.53;;
10769;SDS011;5437;50.852;4.438;2023-02-01T03:08:18;10.02;;;3.53;;
10769;SDS011;5437;50.852;4.438;2023-02-01T03:13:25;16.67;;;3.63;;
10769;SDS011;5437;50.852;4.438;2023-02-01T03:15:56;11.75;;;3.60;;
10769;SDS011;5437;50.852;4.438;2023-02-01T03:18:30;16.30;;;3.80;;
10769;SDS011;5437;50.852;4.438;2023-02-01T03:21:00;14.02;;;3.55;;
10769;SDS011;5437;50.852;4.438;2023-02-01T03:23:30;11.23;;;3.25;;
10769;SDS011;5437;50.852;4.438;2023-02-01T03:25:57;12.63;;;3.65;;
10769;SDS011;5437;50.852;4.438;2023-02-01T03:28:23;11.82;;;3.72;;
10769;SDS011;5437;50.852;4.438;2023-02-01T03:30:51;15.68;;;3.83;;
10769;SDS011;5437;50.852;4.438;2023-02-01T03:33:18;13.27;;;3.72;;
10769;SDS011;5437;50.852;4.438;2023-02-01T03:38:29;11.93;;;3.70;;
10769;SDS011;5437;50.852;4.438;2023-02-01T03:43:29;11.77;;;3.42;;
10769;SDS011;5437;50.852;4.438;2023-02-01T03:46:00;13.70;;;3.55;;
10769;SDS011;5437;50.852;4.438;2023-02-01T03:48:27;14.48;;;3.60;;
10769;SDS011;5437;50.852;4.438;2023-02-01T03:50:55;11.82;;;2.97;;
10769;SDS011;5437;50.852;4.438;2023-02-01T03:53:22;11.55;;;3.05;;
10769;SDS011;5437;50.852;4.438;2023-02-01T03:55:49;18.05;;;3.70;;
10769;SDS011;5437;50.852;4.438;2023-02-01T03:58:18;10.25;;;3.15;;
10769;SDS011;5437;50.852;4.438;2023-02-01T04:00:46;9.68;;;3.33;;
10769;SDS011;5437;50.852;4.438;2023-02-01T04:03:15;15.45;;;3.58;;
10769;SDS011;5437;50.852;4.438;2023-02-01T04:05:41;14.10;;;3.53;;
10769;SDS011;5437;50.852;4.438;2023-02-01T04:08:07;10.45;;;3.33;;
10769;SDS011;5437;50.852;4.438;2023-02-01T04:10:33;14.68;;;3.90;;
10769;SDS011;5437;50.852;4.438;2023-02-01T04:12:59;11.00;;;3.03;;
10769;SDS011;5437;50.852;4.438;2023-02-01T04:15:25;18.58;;;3.90;;
10769;SDS011;5437;50.852;4.438;2023-02-01T04:17:51;12.07;;;3.53;;
10769;SDS011;5437;50.852;4.438;2023-02-01T04:20:17;15.55;;;3.80;;
10769;SDS011;5437;50.852;4.438;2023-02-01T04:22:44;12.55;;;3.63;;
10769;SDS011;5437;50.852;4.438;2023-02-01T04:25:10;17.40;;;4.07;;
10769;SDS011;5437;50.852;4.438;2023-02-01T04:27:36;10.82;;;3.20;;
10769;SDS011;5437;50.852;4.438;2023-02-01T04:30:03;13.38;;;3.55;;
10769;SDS011;5437;50.852;4.438;2023-02-01T04:32:29;14.10;;;3.40;;
10769;SDS011;5437;50.852;4.438;2023-02-01T04:34:55;9.75;;;2.97;;
10769;SDS011;5437;50.852;4.438;2023-02-01T04:37:21;14.65;;;3.55;;
10769;SDS011;5437;50.852;4.438;2023-02-01T04:39:47;13.07;;;3.72;;
10769;SDS011;5437;50.852;4.438;2023-02-01T04:42:13;12.40;;;3.30;;
10769;SDS011;5437;50.852;4.438;2023-02-01T04:44:39;13.70;;;3.65;;
10769;SDS011;5437;50.852;4.438;2023-02-01T04:47:06;13.63;;;3.70;;
10769;SDS011;5437;50.852;4.438;2023-02-01T04:49:33;11.20;;;3.45;;
10769;SDS011;5437;50.852;4.438;2023-02-01T04:51:59;13.65;;;3.45;;
10769;SDS011;5437;50.852;4.438;2023-02-01T04:54:25;17.95;;;3.90;;
10769;SDS011;5437;50.852;4.438;2023-02-01T04:56:51;15.18;;;3.70;;
10769;SDS011;5437;50.852;4.438;2023-02-01T04:59:17;16.00;;;3.88;;
10769;SDS011;5437;50.852;4.438;2023-02-01T05:01:43;11.10;;;3.47;;
10769;SDS011;5437;50.852;4.438;2023-02-01T05:04:09;15.27;;;3.17;;
10769;SDS011;5437;50.852;4.438;2023-02-01T05:06:36;15.90;;;3.92;;
10769;SDS011;5437;50.852;4.438;2023-02-01T05:09:02;10.82;;;2.90;;
10769;SDS011;5437;50.852;4.438;2023-02-01T05:11:28;13.00;;;3.53;;
10769;SDS011;5437;50.852;4.438;2023-02-01T05:14:14;11.63;;;3.15;;
10769;SDS011;5437;50.852;4.438;2023-02-01T05:16:41;14.88;;;3.42;;
10769;SDS011;5437;50.852;4.438;2023-02-01T05:19:15;13.57;;;4.40;;
10769;SDS011;5437;50.852;4.438;2023-02-01T05:21:41;13.57;;;3.60;;
10769;SDS011;5437;50.852;4.438;2023-02-01T05:24:07;10.85;;;3.30;;
10769;SDS011;5437;50.852;4.438;2023-02-01T05:26:44;12.52;;;3.38;;
10769;SDS011;5437;50.852;4.438;2023-02-01T05:29:11;14.50;;;3.38;;
10769;SDS011;5437;50.852;4.438;2023-02-01T05:31:37;11.73;;;2.90;;
10769;SDS011;5437;50.852;4.438;2023-02-01T05:34:03;11.27;;;3.75;;
10769;SDS011;5437;50.852;4.438;2023-02-01T05:36:30;10.35;;;3.30;;
10769;SDS011;5437;50.852;4.438;2023-02-01T05:38:56;15.05;;;3.75;;
10769;SDS011;5437;50.852;4.438;2023-02-01T05:41:22;12.70;;;3.20;;
10769;SDS011;5437;50.852;4.438;2023-02-01T05:43:48;11.80;;;3.38;;
10769;SDS011;5437;50.852;4.438;2023-02-01T05:46:14;13.30;;;3.17;;
10769;SDS011;5437;50.852;4.438;2023-02-01T05:48:41;12.75;;;3.35;;
10769;SDS011;5437;50.852;4.438;2023-02-01T05:51:07;14.93;;;3.65;;
10769;SDS011;5437;50.852;4.438;2023-02-01T05:53:34;11.40;;;3.70;;
10769;SDS011;5437;50.852;4.438;2023-02-01T05:56:00;14.77;;;4.32;;
10769;SDS011;5437;50.852;4.438;2023-02-01T05:58:26;17.88;;;3.80;;
10769;SDS011;5437;50.852;4.438;2023-02-01T06:00:52;10.10;;;3.78;;
10769;SDS011;5437;50.852;4.438;2023-02-01T06:03:18;13.13;;;3.85;;
10769;SDS011;5437;50.852;4.438;2023-02-01T06:05:44;12.13;;;3.33;;
10769;SDS011;5437;50.852;4.438;2023-02-01T06:08:11;14.02;;;3.42;;
10769;SDS011;5437;50.852;4.438;2023-02-01T06:10:37;13.45;;;3.40;;
10769;SDS011;5437;50.852;4.438;2023-02-01T06:13:03;10.95;;;3.40;;
10769;SDS011;5437;50.852;4.438;2023-02-01T06:15:30;11.25;;;3.05;;
10769;SDS011;5437;50.852;4.438;2023-02-01T06:17:57;14.05;;;3.50;;
10769;SDS011;5437;50.852;4.438;2023-02-01T06:20:23;11.85;;;3.88;;
10769;SDS011;5437;50.852;4.438;2023-02-01T06:22:49;15.18;;;3.85;;
10769;SDS011;5437;50.852;4.438;2023-02-01T06:25:15;12.18;;;3.40;;
10769;SDS011;5437;50.852;4.438;2023-02-01T06:27:42;14.80;;;3.38;;
10769;SDS011;5437;50.852;4.438;2023-02-01T06:30:10;15.48;;;3.53;;
10769;SDS011;5437;50.852;4.438;2023-02-01T06:32:39;13.05;;;3.42;;
10769;SDS011;5437;50.852;4.438;2023-02-01T06:35:06;10.25;;;3.65;;
10769;SDS011;5437;50.852;4.438;2023-02-01T06:37:33;11.63;;;3.28;;
10769;SDS011;5437;50.852;4.438;2023-02-01T06:39:59;14.45;;;3.30;;
10769;SDS011;5437;50.852;4.438;2023-02-01T06:42:25;13.80;;;3.22;;
10769;SDS011;5437;50.852;4.438;2023-02-01T06:44:51;18.58;;;4.28;;
10769;SDS011;5437;50.852;4.438;2023-02-01T06:47:17;11.20;;;3.20;;
10769;SDS011;5437;50.852;4.438;2023-02-01T06:49:43;15.63;;;3.97;;
10769;SDS011;5437;50.852;4.438;2023-02-01T06:52:09;12.43;;;3.63;;
10769;SDS011;5437;50.852;4.438;2023-02-01T06:54:35;13.32;;;3.22;;
10769;SDS011;5437;50.852;4.438;2023-02-01T06:57:02;12.93;;;3.50;;
10769;SDS011;5437;50.852;4.438;2023-02-01T06:59:28;15.38;;;3.85;;
10769;SDS011;5437;50.852;4.438;2023-02-01T07:01:54;14.23;;;3.67;;
10769;SDS011;5437;50.852;4.438;2023-02-01T07:04:20;11.95;;;3.30;;
10769;SDS011;5437;50.852;4.438;2023-02-01T07:06:46;11.43;;;3.70;;
10769;SDS011;5437;50.852;4.438;2023-02-01T07:09:12;11.88;;;3.70;;
10769;SDS011;5437;50.852;4.438;2023-02-01T07:11:38;18.63;;;4.03;;
10769;SDS011;5437;50.852;4.438;2023-02-01T07:14:09;10.05;;;3.15;;
10769;SDS011;5437;50.852;4.438;2023-02-01T07:16:38;17.88;;;4.75;;
10769;SDS011;5437;50.852;4.438;2023-02-01T07:19:05;13.80;;;3.80;;
10769;SDS011;5437;50.852;4.438;2023-02-01T07:21:31;13.55;;;4.03;;
10769;SDS011;5437;50.852;4.438;2023-02-01T07:23:57;15.93;;;3.90;;
10769;SDS011;5437;50.852;4.438;2023-02-01T07:26:24;14.15;;;3.30;;
10769;SDS011;5437;50.852;4.438;2023-02-01T07:28:50;11.15;;;3.70;;
10769;SDS011;5437;50.852;4.438;2023-02-01T07:31:17;12.50;;;3.55;;
10769;SDS011;5437;50.852;4.438;2023-02-01T07:33:45;15.15;;;3.72;;
10769;SDS011;5437;50.852;4.438;2023-02-01T07:36:12;16.92;;;3.95;;
10769;SDS011;5437;50.852;4.438;2023-02-01T07:38:39;11.80;;;3.67;;
10769;SDS011;5437;50.852;4.438;2023-02-01T07:41:05;14.73;;;4.20;;
10769;SDS011;5437;50.852;4.438;2023-02-01T07:43:31;16.80;;;3.90;;
10769;SDS011;5437;50.852;4.438;2023-02-01T07:46:01;15.45;;;4.00;;
10769;SDS011;5437;50.852;4.438;2023-02-01T07:48:28;14.35;;;3.60;;
10769;SDS011;5437;50.852;4.438;2023-02-01T07:50:59;14.10;;;3.90;;
10769;SDS011;5437;50.852;4.438;2023-02-01T07:53:26;11.95;;;3.30;;
10769;SDS011;5437;50.852;4.438;2023-02-01T07:55:52;11.88;;;3.55;;
10769;SDS011;5437;50.852;4.438;2023-02-01T07:58:18;18.73;;;4.00;;
10769;SDS011;5437;50.852;4.438;2023-02-01T08:00:44;12.82;;;3.72;;
10769;SDS011;5437;50.852;4.438;2023-02-01T08:03:29;13.32;;;4.22;;
10769;SDS011;5437;50.852;4.438;2023-02-01T08:05:55;15.45;;;3.80;;
10769;SDS011;5437;50.852;4.438;2023-02-01T08:08:21;16.35;;;4.38;;
10769;SDS011;5437;50.852;4.438;2023-02-01T08:10:47;14.80;;;3.92;;
10769;SDS011;5437;50.852;4.438;2023-02-01T08:13:13;13.18;;;4.18;;
10769;SDS011;5437;50.852;4.438;2023-02-01T08:15:39;18.08;;;4.25;;
10769;SDS011;5437;50.852;4.438;2023-02-01T08:18:05;15.20;;;3.58;;
10769;SDS011;5437;50.852;4.438;2023-02-01T08:20:31;17.67;;;4.55;;
10769;SDS011;5437;50.852;4.438;2023-02-01T08:22:59;11.25;;;3.80;;
10769;SDS011;5437;50.852;4.438;2023-02-01T08:25:25;13.65;;;3.58;;
10769;SDS011;5437;50.852;4.438;2023-02-01T08:27:53;17.75;;;4.18;;
10769;SDS011;5437;50.852;4.438;2023-02-01T08:30:20;13.90;;;3.65;;
10769;SDS011;5437;50.852;4.438;2023-02-01T08:32:47;16.23;;;4.47;;
10769;SDS011;5437;50.852;4.438;2023-02-01T08:35:13;15.48;;;4.60;;
10769;SDS011;5437;50.852;4.438;2023-02-01T08:37:39;13.88;;;3.75;;
10769;SDS011;5437;50.852;4.438;2023-02-01T08:40:05;14.68;;;3.80;;
10769;SDS011;5437;50.852;4.438;2023-02-01T08:42:31;10.50;;;4.05;;
10769;SDS011;5437;50.852;4.438;2023-02-01T08:45:19;16.10;;;3.92;;
10769;SDS011;5437;50.852;4.438;2023-02-01T08:47:46;16.05;;;4.43;;
10769;SDS011;5437;50.852;4.438;2023-02-01T08:50:12;15.73;;;3.97;;
10769;SDS011;5437;50.852;4.438;2023-02-01T08:52:39;13.15;;;3.97;;
10769;SDS011;5437;50.852;4.438;2023-02-01T08:55:05;13.48;;;4.18;;
10769;SDS011;5437;50.852;4.438;2023-02-01T08:57:32;14.05;;;3.60;;
10769;SDS011;5437;50.852;4.438;2023-02-01T08:59:58;13.27;;;3.78;;
10769;SDS011;5437;50.852;4.438;2023-02-01T09:02:25;11.05;;;3.45;;
10769;SDS011;5437;50.852;4.438;2023-02-01T09:04:51;13.40;;;3.55;;
10769;SDS011;5437;50.852;4.438;2023-02-01T09:07:23;15.70;;;3.90;;
10769;SDS011;5437;50.852;4.438;2023-02-01T09:09:49;14.55;;;4.30;;
10769;SDS011;5437;50.852;4.438;2023-02-01T09:12:15;17.52;;;4.35;;
10769;SDS011;5437;50.852;4.438;2023-02-01T09:14:41;13.73;;;3.72;;
10769;SDS011;5437;50.852;4.438;2023-02-01T09:17:08;11.90;;;3.47;;
10769;SDS011;5437;50.852;4.438;2023-02-01T09:19:34;14.95;;;3.72;;
10769;SDS011;5437;50.852;4.438;2023-02-01T09:22:00;12.48;;;3.92;;
10769;SDS011;5437;50.852;4.438;2023-02-01T09:24:26;14.30;;;4.47;;
10769;SDS011;5437;50.852;4.438;2023-02-01T09:26:52;13.32;;;3.30;;
10769;SDS011;5437;50.852;4.438;2023-02-01T09:29:18;15.05;;;4.00;;
10769;SDS011;5437;50.852;4.438;2023-02-01T09:31:44;13.07;;;3.90;;
10769;SDS011;5437;50.852;4.438;2023-02-01T09:34:10;14.18;;;4.15;;
10769;SDS011;5437;50.852;4.438;2023-02-01T09:36:36;17.67;;;3.97;;
10769;SDS011;5437;50.852;4.438;2023-02-01T09:39:02;13.23;;;4.25;;
10769;SDS011;5437;50.852;4.438;2023-02-01T09:46:49;12.85;;;3.40;;
10769;SDS011;5437;50.852;4.438;2023-02-01T09:49:19;12.98;;;4.32;;
10769;SDS011;5437;50.852;4.438;2023-02-01T09:51:46;12.57;;;3.90;;
10769;SDS011;5437;50.852;4.438;2023-02-01T09:54:16;13.10;;;3.90;;
10769;SDS011;5437;50.852;4.438;2023-02-01T09:56:49;14.65;;;4.03;;
10769;SDS011;5437;50.852;4.438;2023-02-01T10:01:49;14.05;;;3.75;;
10769;SDS011;5437;50.852;4.438;2023-02-01T10:04:15;14.48;;;4.18;;
10769;SDS011;5437;50.852;4.438;2023-02-01T10:17:20;10.05;;;3.60;;
10769;SDS011;5437;50.852;4.438;2023-02-01T10:19:58;13.07;;;3.47;;
10769;SDS011;5437;50.852;4.438;2023-02-01T10:27:39;11.63;;;3.10;;
10769;SDS011;5437;50.852;4.438;2023-02-01T10:30:14;11.98;;;3.42;;
10769;SDS011;5437;50.852;4.438;2023-02-01T10:32:40;14.32;;;3.10;;
10769;SDS011;5437;50.852;4.438;2023-02-01T10:35:15;11.35;;;3.17;;
10769;SDS011;5437;50.852;4.438;2023-02-01T10:37:43;12.60;;;3.78;;
10769;SDS011;5437;50.852;4.438;2023-02-01T10:42:36;12.52;;;3.40;;
10769;SDS011;5437;50.852;4.438;2023-02-01T10:45:02;16.63;;;3.38;;
10769;SDS011;5437;50.852;4.438;2023-02-01T10:47:29;11.18;;;3.20;;
10769;SDS011;5437;50.852;4.438;2023-02-01T10:50:04;14.05;;;3.42;;
10769;SDS011;5437;50.852;4.438;2023-02-01T10:52:34;11.73;;;3.25;;
10769;SDS011;5437;50.852;4.438;2023-02-01T10:57:55;13.00;;;3.20;;
10769;SDS011;5437;50.852;4.438;2023-02-01T11:00:21;12.10;;;3.10;;
10769;SDS011;5437;50.852;4.438;2023-02-01T11:02:48;10.77;;;3.22;;
10769;SDS011;5437;50.852;4.438;2023-02-01T11:05:15;10.88;;;2.92;;
10769;SDS011;5437;50.852;4.438;2023-02-01T11:07:47;11.25;;;3.25;;
10769;SDS011;5437;50.852;4.438;2023-02-01T11:12:59;9.60;;;2.63;;
10769;SDS011;5437;50.852;4.438;2023-02-01T11:15:27;7.68;;;2.40;;
10769;SDS011;5437;50.852;4.438;2023-02-01T11:17:53;12.48;;;3.35;;
10769;SDS011;5437;50.852;4.438;2023-02-01T11:20:33;10.07;;;2.67;;
10769;SDS011;5437;50.852;4.438;2023-02-01T11:23:00;8.68;;;2.60;;
10769;SDS011;5437;50.852;4.438;2023-02-01T11:25:27;7.93;;;2.45;;
10769;SDS011;5437;50.852;4.438;2023-02-01T11:27:53;9.52;;;2.72;;
10769;SDS011;5437;50.852;4.438;2023-02-01T11:30:31;14.50;;;3.20;;
10769;SDS011;5437;50.852;4.438;2023-02-01T11:32:59;15.38;;;3.30;;
10769;SDS011;5437;50.852;4.438;2023-02-01T11:35:26;11.02;;;3.28;;
10769;SDS011;5437;50.852;4.438;2023-02-01T11:37:54;9.43;;;2.55;;
10769;SDS011;5437;50.852;4.438;2023-02-01T11:40:28;7.50;;;2.67;;
10769;SDS011;5437;50.852;4.438;2023-02-01T11:43:28;10.73;;;2.70;;
10769;SDS011;5437;50.852;4.438;2023-02-01T11:45:53;10.27;;;2.60;;
10769;SDS011;5437;50.852;4.438;2023-02-01T11:48:19;11.75;;;2.72;;
10769;SDS011;5437;50.852;4.438;2023-02-01T11:55:55;9.27;;;2.20;;
10769;SDS011;5437;50.852;4.438;2023-02-01T12:06:18;6.35;;;2.13;;
10769;SDS011;5437;50.852;4.438;2023-02-01T12:08:51;6.57;;;2.22;;
10769;SDS011;5437;50.852;4.438;2023-02-01T12:11:27;7.88;;;2.10;;
10769;SDS011;5437;50.852;4.438;2023-02-01T12:16:41;7.80;;;2.65;;
10769;SDS011;5437;50.852;4.438;2023-02-01T12:19:15;8.70;;;2.70;;
10769;SDS011;5437;50.852;4.438;2023-02-01T12:24:16;7.10;;;2.05;;
10769;SDS011;5437;50.852;4.438;2023-02-01T12:26:50;4.57;;;1.80;;
10769;SDS011;5437;50.852;4.438;2023-02-01T12:44:19;6.22;;;2.10;;
10769;SDS011;5437;50.852;4.438;2023-02-01T12:46:50;7.32;;;2.28;;
10769;SDS011;5437;50.852;4.438;2023-02-01T12:49:19;4.95;;;1.80;;
10769;SDS011;5437;50.852;4.438;2023-02-01T12:51:50;6.30;;;2.10;;
10769;SDS011;5437;50.852;4.438;2023-02-01T12:57:04;7.57;;;2.10;;
10769;SDS011;5437;50.852;4.438;2023-02-01T13:07:14;7.75;;;1.77;;
10769;SDS011;5437;50.852;4.438;2023-02-01T13:09:47;4.28;;;1.63;;
10769;SDS011;5437;50.852;4.438;2023-02-01T13:12:15;4.95;;;1.65;;
10769;SDS011;5437;50.852;4.438;2023-02-01T13:14:44;6.43;;;1.77;;
10769;SDS011;5437;50.852;4.438;2023-02-01T13:17:16;5.75;;;1.67;;
10769;SDS011;5437;50.852;4.438;2023-02-01T13:22:30;6.55;;;1.92;;
10769;SDS011;5437;50.852;4.438;2023-02-01T13:24:58;9.50;;;1.77;;
10769;SDS011;5437;50.852;4.438;2023-02-01T13:27:26;8.63;;;1.85;;
10769;SDS011;5437;50.852;4.438;2023-02-01T13:29:56;5.22;;;1.80;;
10769;SDS011;5437;50.852;4.438;2023-02-01T13:38:03;8.02;;;2.08;;
10769;SDS011;5437;50.852;4.438;2023-02-01T13:42:59;6.82;;;1.75;;
10769;SDS011;5437;50.852;4.438;2023-02-01T13:45:27;12.55;;;2.10;;
10769;SDS011;5437;50.852;4.438;2023-02-01T13:47:55;7.43;;;1.90;;
10769;SDS011;5437;50.852;4.438;2023-02-01T13:50:32;6.38;;;2.05;;
10769;SDS011;5437;50.852;4.438;2023-02-01T13:53:03;7.57;;;2.10;;
10769;SDS011;5437;50.852;4.438;2023-02-01T13:55:36;5.60;;;1.70;;
10769;SDS011;5437;50.852;4.438;2023-02-01T13:58:28;9.73;;;2.28;;
10769;SDS011;5437;50.852;4.438;2023-02-01T14:03:43;7.50;;;2.10;;
10769;SDS011;5437;50.852;4.438;2023-02-01T14:16:39;6.70;;;2.20;;
10769;SDS011;5437;50.852;4.438;2023-02-01T14:19:07;8.88;;;1.98;;
10769;SDS011;5437;50.852;4.438;2023-02-01T14:21:34;9.93;;;2.00;;
10769;SDS011;5437;50.852;4.438;2023-02-01T14:24:04;5.15;;;1.77;;
10769;SDS011;5437;50.852;4.438;2023-02-01T14:26:51;5.35;;;1.70;;
10769;SDS011;5437;50.852;4.438;2023-02-01T14:29:23;7.72;;;2.35;;
10769;SDS011;5437;50.852;4.438;2023-02-01T14:31:58;6.78;;;1.98;;
10769;SDS011;5437;50.852;4.438;2023-02-01T14:42:45;9.85;;;2.00;;
10769;SDS011;5437;50.852;4.438;2023-02-01T14:52:43;7.10;;;2.00;;
10769;SDS011;5437;50.852;4.438;2023-02-01T14:55:11;6.72;;;2.15;;
10769;SDS011;5437;50.852;4.438;2023-02-01T14:57:39;4.68;;;2.03;;
10769;SDS011;5437;50.852;4.438;2023-02-01T15:00:39;8.55;;;2.55;;
10769;SDS011;5437;50.852;4.438;2023-02-01T15:03:45;8.10;;;2.28;;
10769;SDS011;5437;50.852;4.438;2023-02-01T15:05:44;11.00;;;2.75;;
10769;SDS011;5437;50.852;4.438;2023-02-01T15:08:16;8.02;;;2.17;;
10769;SDS011;5437;50.852;4.438;2023-02-01T15:10:44;8.98;;;2.50;;
10769;SDS011;5437;50.852;4.438;2023-02-01T15:13:24;9.23;;;2.20;;
10769;SDS011;5437;50.852;4.438;2023-02-01T15:16:00;6.45;;;1.83;;
10769;SDS011;5437;50.852;4.438;2023-02-01T15:18:26;7.65;;;2.65;;
10769;SDS011;5437;50.852;4.438;2023-02-01T15:20:56;8.13;;;2.05;;
10769;SDS011;5437;50.852;4.438;2023-02-01T15:23:24;11.40;;;2.65;;
10769;SDS011;5437;50.852;4.438;2023-02-01T15:25:50;7.25;;;2.28;;
10769;SDS011;5437;50.852;4.438;2023-02-01T15:28:16;7.05;;;2.30;;
10769;SDS011;5437;50.852;4.438;2023-02-01T15:30:52;8.70;;;2.35;;
10769;SDS011;5437;50.852;4.438;2023-02-01T15:33:19;9.90;;;2.50;;
10769;SDS011;5437;50.852;4.438;2023-02-01T15:35:46;11.63;;;2.90;;
10769;SDS011;5437;50.852;4.438;2023-02-01T15:38:19;8.90;;;2.28;;
10769;SDS011;5437;50.852;4.438;2023-02-01T15:40:55;8.95;;;2.42;;
10769;SDS011;5437;50.852;4.438;2023-02-01T15:43:22;11.35;;;2.35;;
10769;SDS011;5437;50.852;4.438;2023-02-01T15:45:48;9.65;;;2.35;;
10769;SDS011;5437;50.852;4.438;2023-02-01T15:48:19;12.10;;;2.70;;
10769;SDS011;5437;50.852;4.438;2023-02-01T15:50:47;7.90;;;2.53;;
10769;SDS011;5437;50.852;4.438;2023-02-01T15:53:15;7.93;;;2.58;;
10769;SDS011;5437;50.852;4.438;2023-02-01T15:55:44;8.68;;;2.67;;
10769;SDS011;5437;50.852;4.438;2023-02-01T15:58:16;9.30;;;2.33;;
10769;SDS011;5437;50.852;4.438;2023-02-01T16:00:45;10.57;;;2.67;;
10769;SDS011;5437;50.852;4.438;2023-02-01T16:03:31;8.10;;;2.65;;
10769;SDS011;5437;50.852;4.438;2023-02-01T16:06:02;12.95;;;4.35;;
10769;SDS011;5437;50.852;4.438;2023-02-01T16:08:29;7.47;;;2.72;;
10769;SDS011;5437;50.852;4.438;2023-02-01T16:13:34;11.38;;;3.30;;
10769;SDS011;5437;50.852;4.438;2023-02-01T16:16:01;8.88;;;2.75;;
10769;SDS011;5437;50.852;4.438;2023-02-01T16:18:28;11.93;;;3.35;;
10769;SDS011;5437;50.852;4.438;2023-02-01T16:20:54;11.85;;;3.05;;
10769;SDS011;5437;50.852;4.438;2023-02-01T16:23:21;8.55;;;2.92;;
10769;SDS011;5437;50.852;4.438;2023-02-01T16:25:47;7.70;;;3.22;;
10769;SDS011;5437;50.852;4.438;2023-02-01T16:28:13;6.10;;;2.53;;
10769;SDS011;5437;50.852;4.438;2023-02-01T16:30:39;9.63;;;2.65;;
10769;SDS011;5437;50.852;4.438;2023-02-01T16:33:05;9.05;;;3.67;;
10769;SDS011;5437;50.852;4.438;2023-02-01T16:35:35;9.93;;;3.17;;
10769;SDS011;5437;50.852;4.438;2023-02-01T16:38:11;11.07;;;3.95;;
10769;SDS011;5437;50.852;4.438;2023-02-01T16:40:41;11.70;;;3.13;;
10769;SDS011;5437;50.852;4.438;2023-02-01T16:43:11;11.05;;;4.00;;
10769;SDS011;5437;50.852;4.438;2023-02-01T16:45:37;8.65;;;2.92;;
10769;SDS011;5437;50.852;4.438;2023-02-01T16:48:05;10.93;;;2.63;;
10769;SDS011;5437;50.852;4.438;2023-02-01T16:50:31;12.50;;;3.30;;
10769;SDS011;5437;50.852;4.438;2023-02-01T16:52:58;12.38;;;3.20;;
10769;SDS011;5437;50.852;4.438;2023-02-01T16:55:24;10.63;;;3.30;;
10769;SDS011;5437;50.852;4.438;2023-02-01T16:57:50;13.93;;;3.53;;
10769;SDS011;5437;50.852;4.438;2023-02-01T17:00:16;9.48;;;2.90;;
10769;SDS011;5437;50.852;4.438;2023-02-01T17:02:44;11.95;;;3.17;;
10769;SDS011;5437;50.852;4.438;2023-02-01T17:05:10;12.95;;;2.85;;
10769;SDS011;5437;50.852;4.438;2023-02-01T17:07:36;8.95;;;2.80;;
10769;SDS011;5437;50.852;4.438;2023-02-01T17:10:04;12.90;;;2.67;;
10769;SDS011;5437;50.852;4.438;2023-02-01T17:12:31;12.23;;;3.20;;
10769;SDS011;5437;50.852;4.438;2023-02-01T17:14:58;11.10;;;3.00;;
10769;SDS011;5437;50.852;4.438;2023-02-01T17:17:30;15.57;;;3.47;;
10769;SDS011;5437;50.852;4.438;2023-02-01T17:19:57;10.27;;;2.75;;
10769;SDS011;5437;50.852;4.438;2023-02-01T17:22:24;10.65;;;2.95;;
10769;SDS011;5437;50.852;4.438;2023-02-01T17:24:50;10.32;;;3.30;;
10769;SDS011;5437;50.852;4.438;2023-02-01T17:27:16;11.77;;;3.35;;